Time;durP1;ratioP1;P1;durP2;ratioP2;P2;SDS_P1;SDS_P2;PMS_P1;PMS_P2;Temp;Humidity;BMP_temperature;BMP_pressure;BME280_temperature;BME280_humidity;BME280_pressure;Samples;Min_cycle;Max_cycle;Signal;HPM_P1;HPM_P2
2022/01/18 00:00:40;;;;;;;11.38;2.92;;;;;;;-0.55;71.98;100790.67;1821465;78;25587;-69
2022/01/18 00:03:08;;;;;;;9.13;2.85;;;;;;;-0.54;71.94;100790.18;1821139;78;25664;-69
2022/01/18 00:05:37;;;;;;;4.28;2.08;;;;;;;-0.55;71.87;100799.98;1813199;79;25646;-68
2022/01/18 00:08:05;;;;;;;6.65;2.10;;;;;;;-0.58;71.80;100796.43;1821304;78;27373;-69
2022/01/18 00:10:33;;;;;;;6.10;2.62;;;;;;;-0.57;71.76;100800.72;1788049;80;25655;-69
2022/01/18 00:18:09;;;;;;;6.08;2.12;;;;;;;-0.60;71.62;100815.78;1788407;80;25641;-69
2022/01/18 00:20:59;;;;;;;;;;;;;;;-0.62;71.54;100817.84;1791391;78;26753;-69
2022/01/18 00:23:21;;;;;;;5.62;2.00;;;;;;;-0.63;71.54;100822.36;1787399;80;25630;-69
2022/01/18 00:25:53;;;;;;;4.78;1.90;;;;;;;-0.63;71.60;100825.52;1788297;80;25753;-71
2022/01/18 00:28:20;;;;;;;6.20;2.15;;;;;;;-0.64;71.60;100822.58;1794709;78;25657;-71
2022/01/18 00:33:49;;;;;;;7.15;2.00;;;;;;;-0.66;71.62;100825.45;1797361;79;28094;-69
2022/01/18 00:36:10;;;;;;;4.95;1.98;;;;;;;-0.68;71.62;100821.38;1799550;78;25586;-71
2022/01/18 00:38:47;;;;;;;5.62;2.42;;;;;;;-0.67;71.68;100827.80;1797677;78;25554;-71
2022/01/18 00:41:17;;;;;;;6.55;2.12;;;;;;;-0.65;71.68;100836.36;1816416;78;25634;-70
2022/01/18 00:43:45;;;;;;;7.70;2.58;;;;;;;-0.60;71.73;100841.02;1830299;78;25400;-70
2022/01/18 00:46:13;;;;;;;5.70;2.30;;;;;;;-0.59;71.80;100843.46;1830274;78;27912;-72
2022/01/18 00:48:41;;;;;;;5.62;2.10;;;;;;;-0.57;71.78;100838.73;1856520;76;25568;-72
2022/01/18 00:51:13;;;;;;;6.40;2.20;;;;;;;-0.53;71.76;100852.91;1865517;76;25228;-72
2022/01/18 00:53:43;;;;;;;6.20;2.25;;;;;;;-0.51;71.86;100849.02;1865210;76;26217;-72
2022/01/18 00:58:40;;;;;;;4.97;1.80;;;;;;;-0.42;71.86;100859.63;1865202;76;27982;-72
2022/01/18 01:01:08;;;;;;;6.70;2.05;;;;;;;-0.38;71.85;100866.11;1864899;76;25573;-72
2022/01/18 01:03:36;;;;;;;7.30;2.33;;;;;;;-0.33;71.88;100871.30;1865150;76;25598;-72
2022/01/18 01:06:05;;;;;;;8.50;2.05;;;;;;;-0.28;71.87;100878.89;1865139;76;25710;-72
2022/01/18 01:08:34;;;;;;;6.40;3.20;;;;;;;-0.24;71.93;100881.42;1865319;76;25547;-72
2022/01/18 01:11:06;;;;;;;7.58;2.45;;;;;;;-0.21;71.91;100882.28;1865299;76;27173;-72
2022/01/18 01:13:35;;;;;;;11.43;2.50;;;;;;;-0.16;71.88;100886.14;1865089;76;25659;-72
2022/01/18 01:35:13;;;;;;;7.95;3.00;;;;;;;0.01;71.78;100919.06;1865217;76;25598;-71
2022/01/18 01:43:13;;;;;;;10.48;3.33;;;;;;;0.03;71.38;100912.20;1831561;76;25554;-71
2022/01/18 01:45:31;;;;;;;5.90;2.90;;;;;;;0.03;71.50;100917.52;1864543;76;25676;-71
2022/01/18 01:48:00;;;;;;;7.35;2.47;;;;;;;0.04;71.36;100920.48;1864872;75;25605;-71
2022/01/18 01:50:39;;;;;;;6.83;3.15;;;;;;;0.04;71.32;100919.15;1865405;76;27324;-72
2022/01/18 01:52:57;;;;;;;8.38;2.83;;;;;;;0.03;71.29;100927.63;1858010;75;25604;-72
2022/01/18 01:55:25;;;;;;;8.40;3.27;;;;;;;0.03;71.12;100920.98;1891843;75;25390;-72
2022/01/18 01:57:51;;;;;;;13.72;3.20;;;;;;;0.03;71.18;100926.30;1857481;75;25533;-72
2022/01/18 02:00:20;;;;;;;7.53;3.05;;;;;;;0.02;70.92;100923.36;1891884;75;25358;-72
2022/01/18 02:02:47;;;;;;;7.75;3.02;;;;;;;0.00;70.93;100929.42;1891923;75;27452;-72
2022/01/18 02:05:14;;;;;;;7.47;2.92;;;;;;;-0.01;70.96;100923.27;1891747;75;25582;-72
2022/01/18 02:07:41;;;;;;;8.58;3.27;;;;;;;-0.03;71.00;100929.87;1891786;75;25511;-72
2022/01/18 02:10:10;;;;;;;10.58;3.37;;;;;;;-0.04;71.01;100932.22;1891755;75;25595;-72
2022/01/18 02:12:38;;;;;;;10.08;3.33;;;;;;;-0.08;70.99;100931.86;1856603;77;25496;-72
2022/01/18 02:15:15;;;;;;;8.25;3.35;;;;;;;-0.13;70.84;100937.03;1856461;77;27455;-72
2022/01/18 02:23:23;;;;;;;7.67;3.37;;;;;;;-0.30;70.88;100947.44;1856466;77;26444;-70
2022/01/18 02:25:50;;;;;;;9.18;3.65;;;;;;;-0.36;70.94;100940.33;1856541;77;25481;-70
2022/01/18 02:28:19;;;;;;;12.05;3.67;;;;;;;-0.42;70.94;100946.55;1856364;77;27478;-72
2022/01/18 02:30:47;;;;;;;11.97;3.40;;;;;;;-0.50;71.04;100944.97;1856529;77;25631;-72
2022/01/18 02:33:15;;;;;;;9.75;3.58;;;;;;;-0.57;71.06;100941.04;1856639;77;25424;-72
2022/01/18 02:35:43;;;;;;;14.47;4.12;;;;;;;-0.64;71.09;100944.28;1856441;77;25812;-71
2022/01/18 02:38:10;;;;;;;9.33;3.65;;;;;;;-0.71;71.24;100949.37;1828283;77;25469;-71
2022/01/18 02:40:36;;;;;;;7.70;3.80;;;;;;;-0.79;71.36;100952.58;1856485;77;27306;-72
2022/01/18 02:45:54;;;;;;;8.95;3.55;;;;;;;-0.92;71.69;100950.02;1860928;76;25389;-72
2022/01/18 02:48:21;;;;;;;11.55;3.77;;;;;;;-1.01;71.83;100936.20;1882878;75;25672;-71
2022/01/18 02:50:48;;;;;;;12.82;4.47;;;;;;;-1.06;71.98;100946.66;1884206;75;25360;-71
2022/01/18 02:53:19;;;;;;;10.78;4.67;;;;;;;-1.12;71.98;100951.52;1852088;76;27846;-72
2022/01/18 02:55:54;;;;;;;11.63;4.60;;;;;;;-1.18;72.25;100954.50;1885849;76;25552;-71
2022/01/18 02:58:26;;;;;;;9.00;4.55;;;;;;;-1.24;72.36;100962.02;1885921;76;25585;-71
2022/01/18 03:03:37;;;;;;;10.03;4.58;;;;;;;-1.35;72.37;100966.66;1885933;76;25339;-71
2022/01/18 03:06:05;;;;;;;12.60;4.28;;;;;;;-1.42;72.66;100972.53;1885954;76;27403;-73
2022/01/18 03:08:33;;;;;;;9.90;4.85;;;;;;;-1.47;72.97;100982.45;1885798;76;25683;-73
2022/01/18 03:11:02;;;;;;;10.75;4.37;;;;;;;-1.52;73.08;100980.42;1885937;75;25407;-73
2022/01/18 03:13:29;;;;;;;10.87;4.57;;;;;;;-1.54;73.18;100988.30;1886180;76;26270;-73
2022/01/18 03:15:55;;;;;;;9.55;4.05;;;;;;;-1.58;73.13;100985.78;1885991;76;25571;-73
2022/01/18 03:18:21;;;;;;;10.95;4.53;;;;;;;-1.63;73.35;100980.30;1885936;76;27304;-73
2022/01/18 03:20:48;;;;;;;15.90;5.25;;;;;;;-1.67;73.52;100979.87;1851662;76;25256;-73
2022/01/18 03:23:19;;;;;;;6.50;3.77;;;;;;;-1.70;73.66;100985.63;1885928;76;25505;-71
2022/01/18 03:25:55;;;;;;;11.22;5.70;;;;;;;-1.74;73.70;100989.22;1885883;75;25619;-71
2022/01/18 03:28:22;;;;;;;10.58;5.40;;;;;;;-1.77;73.95;100989.63;1837037;77;25545;-71
2022/01/18 03:30:54;;;;;;;11.18;4.92;;;;;;;-1.80;73.99;100993.22;1841462;77;27398;-71
2022/01/18 03:33:21;;;;;;;10.58;4.37;;;;;;;-1.82;74.07;100997.89;1841387;77;25578;-71
2022/01/18 03:35:50;;;;;;;12.58;4.97;;;;;;;-1.84;74.27;100999.94;1841767;77;25159;-71
2022/01/18 03:38:19;;;;;;;6.60;3.20;;;;;;;-1.89;74.34;100996.09;1841608;77;35052;-71
2022/01/18 03:40:45;;;;;;;10.28;4.45;;;;;;;-1.91;74.65;100998.15;1841512;77;25181;-72
2022/01/18 03:43:13;;;;;;;11.10;4.80;;;;;;;-1.94;74.66;100992.42;1841496;77;28208;-73
2022/01/18 03:45:45;;;;;;;10.08;4.15;;;;;;;-1.96;74.62;100997.95;1841374;77;25212;-72
2022/01/18 03:48:24;;;;;;;13.13;4.15;;;;;;;-1.98;74.83;101007.94;1841670;77;25512;-72
2022/01/18 03:50:45;;;;;;;10.38;4.15;;;;;;;-2.00;75.20;101006.53;1839860;77;26186;-72
2022/01/18 03:53:12;;;;;;;10.88;5.03;;;;;;;-2.05;75.13;100998.38;1841703;77;25503;-71
2022/01/18 03:55:39;;;;;;;12.50;5.15;;;;;;;-2.02;75.37;101009.91;1841584;77;27475;-71
2022/01/18 03:58:07;;;;;;;10.75;4.33;;;;;;;-2.04;75.45;101012.76;1841489;77;25601;-72
2022/01/18 04:00:33;;;;;;;10.95;4.62;;;;;;;-2.06;75.75;101024.06;1841615;77;25431;-72
2022/01/18 04:03:00;;;;;;;11.28;4.60;;;;;;;-2.05;75.78;101019.59;1841566;77;25578;-72
2022/01/18 04:05:27;;;;;;;14.07;4.28;;;;;;;-2.04;75.94;101027.83;1841641;77;25409;-72
2022/01/18 04:07:54;;;;;;;11.15;3.87;;;;;;;-2.02;76.13;101023.97;1841555;77;27273;-72
2022/01/18 04:10:21;;;;;;;11.90;4.55;;;;;;;-2.01;76.21;101028.26;1808879;77;25618;-72
2022/01/18 04:12:51;;;;;;;11.25;4.20;;;;;;;-1.98;76.20;101028.34;1841587;77;25519;-72
2022/01/18 04:15:18;;;;;;;8.13;3.67;;;;;;;-1.96;76.43;101035.08;1841541;77;25625;-72
2022/01/18 04:18:03;;;;;;;8.90;3.62;;;;;;;-1.92;76.51;101040.78;1841584;77;25523;-72
2022/01/18 04:30:55;;;;;;;7.80;3.30;;;;;;;-1.78;76.89;101076.84;1862529;77;25510;-71
2022/01/18 04:33:21;;;;;;;7.33;3.80;;;;;;;-1.75;76.99;101079.09;1862462;77;27289;-71
2022/01/18 04:35:48;;;;;;;9.30;2.92;;;;;;;-1.70;77.00;101081.13;1829205;77;25425;-71
2022/01/18 04:38:15;;;;;;;9.50;3.27;;;;;;;-1.68;77.08;101083.05;1862478;77;25517;-71
2022/01/18 04:40:44;;;;;;;11.25;3.75;;;;;;;-1.63;77.06;101080.59;1862428;77;25614;-71
2022/01/18 04:43:37;;;;;;;7.78;3.55;;;;;;;-1.59;77.05;101091.08;1862576;76;25353;-71
2022/01/18 04:48:36;;;;;;;9.00;4.05;;;;;;;-1.52;77.07;101103.80;1862416;77;25501;-71
2022/01/18 04:51:11;;;;;;;11.20;4.53;;;;;;;-1.49;77.05;101100.45;1829214;77;25388;-71
2022/01/18 04:53:44;;;;;;;11.90;5.05;;;;;;;-1.47;76.98;101086.45;1862422;77;26204;-71
2022/01/18 04:56:15;;;;;;;14.07;4.35;;;;;;;-1.46;76.98;101112.79;1862570;77;25351;-71
2022/01/18 04:58:38;;;;;;;12.58;4.00;;;;;;;-1.43;77.03;101112.87;1862249;75;27471;-71
2022/01/18 05:01:08;;;;;;;11.33;4.58;;;;;;;-1.42;77.02;101108.68;1862363;77;25351;-71
2022/01/18 05:03:34;;;;;;;11.22;3.98;;;;;;;-1.40;77.05;101114.59;1862595;77;25440;-71
2022/01/18 05:06:10;;;;;;;12.00;4.25;;;;;;;-1.38;77.09;101115.71;1862386;76;25626;-71
2022/01/18 05:08:32;;;;;;;8.93;3.47;;;;;;;-1.36;77.13;101119.80;1862317;76;25501;-71
2022/01/18 05:10:58;;;;;;;10.60;3.58;;;;;;;-1.34;77.07;101115.61;1862403;76;27306;-71
2022/01/18 05:23:49;;;;;;;9.25;3.72;;;;;;;-1.27;77.09;101119.05;1862415;76;26993;-70
2022/01/18 05:26:16;;;;;;;8.45;4.25;;;;;;;-1.27;77.04;101113.74;1862330;77;25615;-70
2022/01/18 05:28:42;;;;;;;9.83;3.22;;;;;;;-1.28;77.04;101113.43;1862293;75;25881;-71
2022/01/18 05:31:08;;;;;;;10.32;3.50;;;;;;;-1.29;77.06;101118.45;1862401;77;25634;-70
2022/01/18 05:33:35;;;;;;;7.85;3.70;;;;;;;-1.32;77.07;101127.64;1862465;75;25628;-67
2022/01/18 05:36:02;;;;;;;13.00;4.03;;;;;;;-1.35;77.03;101122.73;1862440;76;27312;-69
2022/01/18 05:38:32;;;;;;;10.80;4.08;;;;;;;-1.42;77.00;101114.51;1862301;77;25576;-69
2022/01/18 05:40:57;;;;;;;9.43;3.70;;;;;;;-1.40;77.16;101123.07;1862334;77;25505;-69
2022/01/18 05:43:24;;;;;;;7.67;3.55;;;;;;;-1.43;77.28;101126.14;1861778;75;25628;-69
2022/01/18 05:45:54;;;;;;;5.55;3.20;;;;;;;-1.46;77.32;101130.04;1862390;76;25407;-69
2022/01/18 05:48:20;;;;;;;14.60;3.40;;;;;;;-1.48;77.30;101136.56;1862489;77;27013;-69
2022/01/18 05:50:47;;;;;;;10.08;3.08;;;;;;;-1.51;77.42;101131.17;1862323;77;25406;-69
2022/01/18 05:53:14;;;;;;;8.65;3.33;;;;;;;-1.56;77.47;101127.81;1862403;76;25553;-69
2022/01/18 05:55:40;;;;;;;7.78;3.37;;;;;;;-1.57;77.74;101135.45;1862377;76;26250;-69
2022/01/18 05:58:07;;;;;;;12.03;3.72;;;;;;;-1.60;77.62;101130.59;1862191;77;25365;-70
2022/01/18 06:00:37;;;;;;;10.45;3.80;;;;;;;-1.62;77.74;101138.44;1862410;76;27293;-70
2022/01/18 06:03:11;;;;;;;7.95;3.37;;;;;;;-1.64;77.88;101139.16;1862238;75;25353;-70
2022/01/18 06:08:19;;;;;;;7.20;3.15;;;;;;;-1.70;78.03;101150.09;1862366;77;26000;-70
2022/01/18 06:10:46;;;;;;;8.80;3.40;;;;;;;-1.72;78.00;101154.77;1861868;75;25146;-69
2022/01/18 06:13:14;;;;;;;14.60;4.47;;;;;;;-1.74;78.01;101164.28;1823661;76;27280;-70
2022/01/18 06:15:42;;;;;;;6.08;3.60;;;;;;;-1.76;78.39;101159.67;1813323;79;25747;-70
2022/01/18 06:18:09;;;;;;;8.58;3.52;;;;;;;-1.77;78.33;101163.85;1821631;78;25650;-67
2022/01/18 06:20:36;;;;;;;9.45;4.05;;;;;;;-1.79;78.31;101164.05;1850424;75;26238;-67
2022/01/18 06:23:06;;;;;;;13.15;4.67;;;;;;;-1.79;78.42;101156.62;1860605;77;25402;-69
2022/01/18 06:25:32;;;;;;;12.18;3.55;;;;;;;-1.82;78.51;101164.49;1827407;77;27249;-68
2022/01/18 06:27:59;;;;;;;8.90;3.55;;;;;;;-1.82;78.62;101157.02;1860449;77;25755;-68
2022/01/18 06:30:26;;;;;;;10.43;3.67;;;;;;;-1.83;78.66;101173.45;1852828;77;25405;-70
2022/01/18 06:32:52;;;;;;;8.43;3.60;;;;;;;-1.84;78.83;101173.66;1851544;77;25614;-70
2022/01/18 06:35:19;;;;;;;10.05;3.83;;;;;;;-1.85;79.03;101175.50;1847301;77;25384;-68
2022/01/18 06:37:46;;;;;;;9.63;3.80;;;;;;;-1.84;79.04;101163.86;1851681;77;27322;-69
2022/01/18 06:40:13;;;;;;;7.40;3.25;;;;;;;-1.84;79.13;101176.31;1851462;77;25515;-68
2022/01/18 06:42:40;;;;;;;8.30;3.35;;;;;;;-1.84;79.30;101169.16;1851583;77;25539;-68
2022/01/18 06:45:09;;;;;;;11.05;5.60;;;;;;;-1.84;79.40;101175.79;1851532;77;25610;-69
2022/01/18 06:47:37;;;;;;;9.88;3.70;;;;;;;-1.82;79.40;101179.56;1851798;77;25412;-70
2022/01/18 06:50:06;;;;;;;7.87;3.70;;;;;;;-1.82;79.56;101183.55;1851521;77;27961;-70
2022/01/18 06:52:33;;;;;;;7.67;3.72;;;;;;;-1.80;79.66;101174.38;1851607;77;25597;-70
2022/01/18 06:55:01;;;;;;;11.70;3.70;;;;;;;-1.79;79.71;101186.60;1851514;77;25515;-70
2022/01/18 06:57:29;;;;;;;10.18;3.67;;;;;;;-1.77;79.86;101195.19;1851475;77;25655;-70
2022/01/18 06:59:55;;;;;;;9.25;3.27;;;;;;;-1.75;79.93;101201.62;1851643;77;25387;-70
2022/01/18 07:02:22;;;;;;;10.58;3.98;;;;;;;-1.74;79.84;101204.56;1851542;77;27356;-70
2022/01/18 07:04:48;;;;;;;14.55;4.10;;;;;;;-1.71;79.90;101209.47;1851448;77;25571;-69
2022/01/18 07:07:17;;;;;;;8.60;3.60;;;;;;;-1.68;79.94;101218.34;1851553;77;25525;-69
2022/01/18 07:09:44;;;;;;;13.70;4.37;;;;;;;-1.65;80.00;101211.80;1851620;77;25612;-69
2022/01/18 07:12:12;;;;;;;9.50;3.85;;;;;;;-1.61;80.11;101221.00;1851530;77;25417;-70
2022/01/18 07:14:42;;;;;;;7.30;2.90;;;;;;;-1.56;80.12;101224.66;1851574;77;27305;-70
2022/01/18 07:17:12;;;;;;;9.45;4.10;;;;;;;-1.52;80.16;101228.52;1825426;77;25365;-69
2022/01/18 07:19:39;;;;;;;9.28;3.17;;;;;;;-1.46;80.18;101227.39;1851557;77;25412;-69
2022/01/18 07:22:06;;;;;;;9.75;3.75;;;;;;;-1.44;80.13;101230.16;1851592;77;25663;-69
2022/01/18 07:24:50;;;;;;;10.88;3.90;;;;;;;-1.39;80.20;101237.52;1851776;77;25555;-70
2022/01/18 07:27:17;;;;;;;13.38;3.95;;;;;;;-1.34;80.24;101243.02;1851789;77;27869;-69
2022/01/18 07:29:46;;;;;;;9.73;4.20;;;;;;;-1.26;80.24;101249.94;1848787;77;25371;-69
2022/01/18 07:32:14;;;;;;;10.30;4.27;;;;;;;-1.13;80.34;101255.23;1845508;77;25428;-69
2022/01/18 07:34:49;;;;;;;15.13;5.05;;;;;;;-1.13;80.34;101255.23;1845159;77;25615;-69
2022/01/18 07:37:11;;;;;;;13.10;3.87;;;;;;;-1.03;80.32;101264.09;1845142;77;25369;-69
2022/01/18 07:39:37;;;;;;;10.95;4.22;;;;;;;-0.93;80.44;101249.88;1840053;77;27330;-69
2022/01/18 07:42:06;;;;;;;8.63;4.50;;;;;;;-0.80;80.59;101259.14;1845098;77;25621;-69
2022/01/18 07:44:32;;;;;;;10.20;4.03;;;;;;;-0.62;80.75;101266.94;1838810;77;25744;-69
2022/01/18 07:46:59;;;;;;;10.35;4.67;;;;;;;-0.47;80.47;101269.33;1845090;77;25692;-69
2022/01/18 07:49:26;;;;;;;8.13;4.15;;;;;;;-0.32;80.27;101278.34;1845145;77;25582;-70
2022/01/18 07:51:53;;;;;;;11.55;4.50;;;;;;;-0.21;79.98;101280.34;1845189;77;27354;-70
2022/01/18 07:54:21;;;;;;;13.60;4.45;;;;;;;-0.12;79.57;101291.05;1845051;77;25418;-70
2022/01/18 07:56:48;;;;;;;9.33;4.05;;;;;;;-0.03;79.49;101295.08;1845170;77;25533;-70
2022/01/18 07:59:17;;;;;;;9.33;4.55;;;;;;;0.13;79.47;101302.25;1845192;77;26202;-68
2022/01/18 08:01:43;;;;;;;11.15;5.08;;;;;;;0.25;79.14;101305.03;1845223;77;25556;-69
2022/01/18 08:04:10;;;;;;;10.63;4.30;;;;;;;0.31;78.94;101304.19;1845167;77;27297;-69
2022/01/18 08:06:37;;;;;;;8.43;3.92;;;;;;;0.33;78.58;101308.25;1845114;77;25513;-69
2022/01/18 08:09:04;;;;;;;9.48;3.70;;;;;;;0.37;78.47;101313.95;1845095;77;25612;-69
2022/01/18 08:11:30;;;;;;;9.88;3.95;;;;;;;0.45;78.48;101327.53;1845125;77;25620;-69
2022/01/18 08:13:58;;;;;;;12.15;4.58;;;;;;;0.54;78.46;101330.21;1845121;77;25711;-70
2022/01/18 08:18:56;;;;;;;12.78;4.72;;;;;;;0.67;78.12;101331.97;1845299;77;25582;-70
2022/01/18 08:21:23;;;;;;;14.37;5.13;;;;;;;0.72;78.13;101332.94;1845407;77;25515;-69
2022/01/18 08:23:51;;;;;;;11.35;5.10;;;;;;;0.93;78.93;101341.56;1845138;77;25620;-70
2022/01/18 08:26:18;;;;;;;13.72;4.65;;;;;;;1.30;78.89;101339.77;1839932;77;25688;-70
2022/01/18 08:28:45;;;;;;;10.72;4.47;;;;;;;1.37;78.01;101342.37;1845172;77;28214;-70
2022/01/18 08:31:13;;;;;;;10.72;4.20;;;;;;;1.39;77.23;101345.63;1850798;77;25536;-70
2022/01/18 08:33:40;;;;;;;7.92;3.83;;;;;;;1.40;77.12;101360.59;1851751;77;25537;-71
2022/01/18 08:36:07;;;;;;;8.80;4.35;;;;;;;1.46;77.06;101366.39;1851606;77;25620;-70
2022/01/18 08:38:37;;;;;;;8.35;3.52;;;;;;;1.73;77.87;101371.92;1851734;77;25607;-70
2022/01/18 08:41:04;;;;;;;7.28;4.08;;;;;;;2.19;78.80;101369.98;1851815;77;27275;-70
2022/01/18 08:43:33;;;;;;;9.90;3.98;;;;;;;2.49;77.83;101381.72;1825546;77;25758;-70
2022/01/18 08:46:03;;;;;;;11.30;3.85;;;;;;;2.53;76.63;101384.22;1851728;77;25407;-70
2022/01/18 08:48:31;;;;;;;9.60;3.50;;;;;;;2.54;75.90;101385.86;1851658;77;26229;-71
2022/01/18 08:50:59;;;;;;;7.55;3.15;;;;;;;2.49;75.34;101394.55;1851677;77;25569;-71
2022/01/18 08:53:26;;;;;;;8.90;3.10;;;;;;;2.47;75.13;101404.64;1825583;77;28047;-71
2022/01/18 08:55:53;;;;;;;11.22;3.67;;;;;;;2.44;74.83;101402.42;1851585;77;25208;-71
2022/01/18 08:58:23;;;;;;;6.22;2.65;;;;;;;2.42;74.68;101414.66;1851716;77;25541;-71
2022/01/18 09:00:50;;;;;;;7.45;3.15;;;;;;;2.41;74.73;101408.21;1851663;77;26623;-70
2022/01/18 09:03:17;;;;;;;7.75;2.70;;;;;;;2.67;76.50;101423.03;1851719;77;25600;-71
2022/01/18 09:05:45;;;;;;;5.53;2.62;;;;;;;3.33;77.65;101423.82;1851705;77;27318;-72
2022/01/18 09:08:13;;;;;;;12.25;3.20;;;;;;;4.16;78.85;101423.70;1851515;77;25587;-71
2022/01/18 09:10:41;;;;;;;7.15;2.87;;;;;;;4.99;78.78;101432.69;1851634;77;25621;-71
2022/01/18 09:13:08;;;;;;;7.70;3.17;;;;;;;5.96;78.33;101431.94;1817350;78;25608;-71
2022/01/18 09:15:35;;;;;;;8.35;3.52;;;;;;;6.83;76.66;101430.16;1815230;77;25426;-73
2022/01/18 09:18:01;;;;;;;7.90;3.83;;;;;;;7.61;73.99;101436.87;1843145;77;27858;-73
2022/01/18 09:20:28;;;;;;;8.30;2.90;;;;;;;8.20;72.46;101442.53;1843013;77;25506;-73
2022/01/18 09:22:55;;;;;;;8.95;3.12;;;;;;;8.18;68.06;101437.41;1809754;77;25483;-72
2022/01/18 09:25:29;;;;;;;11.28;3.35;;;;;;;7.91;66.18;101442.96;1843082;77;25763;-71
2022/01/18 09:27:56;;;;;;;8.08;2.80;;;;;;;7.68;65.86;101442.87;1809585;79;25739;-72
2022/01/18 09:30:26;;;;;;;6.55;2.95;;;;;;;7.55;64.52;101440.63;1813395;78;27313;-73
2022/01/18 09:32:55;;;;;;;7.12;3.27;;;;;;;7.43;64.57;101450.25;1818564;78;25590;-73
2022/01/18 09:35:23;;;;;;;11.03;2.98;;;;;;;7.37;64.45;101460.18;1818858;78;25527;-73
2022/01/18 09:37:49;;;;;;;11.20;4.33;;;;;;;7.20;64.55;101468.91;1823919;78;25870;-72
2022/01/18 09:40:19;;;;;;;12.07;5.22;;;;;;;7.06;64.59;101467.99;1809823;79;25551;-71
2022/01/18 09:42:50;;;;;;;7.30;3.15;;;;;;;7.05;64.94;101465.04;1754783;81;27328;-72
2022/01/18 09:45:18;;;;;;;7.08;3.35;;;;;;;6.88;64.04;101477.81;1796105;79;25548;-71
2022/01/18 09:47:48;;;;;;;6.50;3.70;;;;;;;6.65;63.91;101478.38;1795818;79;25629;-72
2022/01/18 09:50:22;;;;;;;9.48;3.67;;;;;;;6.35;63.33;101481.54;1829137;78;26250;-72
2022/01/18 09:52:55;;;;;;;10.78;3.72;;;;;;;6.03;63.73;101490.81;1828643;78;25624;-71
2022/01/18 09:55:24;;;;;;;10.08;3.52;;;;;;;5.76;63.96;101500.92;1808896;79;27952;-72
2022/01/18 09:57:53;;;;;;;7.53;3.45;;;;;;;5.45;64.11;101501.81;1805864;79;25552;-71
2022/01/18 10:00:23;;;;;;;5.15;3.05;;;;;;;5.16;64.23;101501.05;1781604;80;25551;-72
2022/01/18 10:02:49;;;;;;;8.83;2.98;;;;;;;4.90;64.89;101506.52;1808190;79;25614;-73
2022/01/18 10:05:27;;;;;;;5.45;2.95;;;;;;;4.68;65.08;101511.20;1808226;79;25574;-71
2022/01/18 10:08:05;;;;;;;5.80;2.55;;;;;;;4.47;65.69;101510.81;1808106;79;27895;-70
2022/01/18 10:10:51;;;;;;;8.98;2.65;;;;;;;4.44;66.55;101504.62;1804621;79;25619;-71
2022/01/18 10:13:34;;;;;;;9.13;3.30;;;;;;;4.47;66.99;101512.16;1808184;79;25450;-71
2022/01/18 10:16:14;;;;;;;7.55;3.20;;;;;;;4.79;67.30;101514.91;1808135;79;25615;-72
2022/01/18 10:18:53;;;;;;;9.85;3.85;;;;;;;4.91;67.82;101521.56;1813153;77;25700;-72
2022/01/18 10:21:39;;;;;;;7.50;2.80;;;;;;;5.00;66.80;101520.09;1834797;77;28122;-72
2022/01/18 10:24:30;;;;;;;9.08;3.42;;;;;;;4.92;66.02;101526.69;1795937;78;26312;-71
2022/01/18 10:26:57;;;;;;;6.53;3.50;;;;;;;4.97;66.39;101531.30;1852045;77;25710;-71
2022/01/18 10:29:35;;;;;;;6.47;3.10;;;;;;;5.17;66.50;101534.34;1861584;77;26223;-72
2022/01/18 10:32:16;;;;;;;10.15;3.47;;;;;;;5.24;66.19;101539.55;1852924;76;25376;-72
2022/01/18 10:37:25;;;;;;;13.22;4.08;;;;;;;5.43;66.67;101549.52;1879113;76;25588;-74
2022/01/18 10:40:05;;;;;;;10.20;3.92;;;;;;;6.33;66.93;101547.66;1804152;79;25727;-72
2022/01/18 10:42:52;;;;;;;8.88;3.83;;;;;;;7.09;66.74;101552.23;1756235;80;26381;-73
2022/01/18 10:45:26;;;;;;;8.98;4.00;;;;;;;8.02;65.99;101552.97;1802796;79;25748;-72
2022/01/18 10:48:02;;;;;;;9.90;3.35;;;;;;;8.67;64.70;101563.53;1782204;80;27325;-72
2022/01/18 10:50:36;;;;;;;7.53;3.10;;;;;;;9.32;63.10;101565.27;1726208;81;25528;-73
2022/01/18 10:53:18;;;;;;;8.13;3.50;;;;;;;10.05;62.09;101568.19;1804525;79;25701;-74
2022/01/18 10:55:48;;;;;;;6.42;3.17;;;;;;;10.55;60.33;101577.78;1782175;80;25678;-74
2022/01/18 10:58:20;;;;;;;7.42;3.55;;;;;;;10.80;59.66;101578.20;1751210;81;25676;-74
2022/01/18 11:00:48;;;;;;;7.85;2.75;;;;;;;11.14;59.00;101568.79;1804473;79;28898;-74
2022/01/18 11:03:15;;;;;;;5.83;2.85;;;;;;;11.42;58.24;101571.02;1782363;77;25676;-74
2022/01/18 11:05:46;;;;;;;5.30;2.58;;;;;;;11.62;57.37;101568.70;1879263;75;25603;-73
2022/01/18 11:08:18;;;;;;;5.72;2.75;;;;;;;11.88;56.82;101565.98;1879180;76;25625;-72
2022/01/18 11:10:47;;;;;;;7.75;3.60;;;;;;;11.93;55.34;101569.23;1879297;76;25665;-70
2022/01/18 11:13:22;;;;;;;6.50;3.02;;;;;;;12.20;55.33;101574.10;1879304;76;27280;-72
2022/01/18 11:15:47;;;;;;;6.42;2.75;;;;;;;12.47;55.20;101576.23;1879270;76;25363;-71
2022/01/18 11:18:18;;;;;;;6.87;3.10;;;;;;;12.19;53.25;101582.00;1879309;76;25422;-72
2022/01/18 11:20:48;;;;;;;6.75;3.35;;;;;;;11.77;53.47;101584.27;1879317;76;26166;-71
2022/01/18 11:23:17;;;;;;;16.05;10.40;;;;;;;12.01;53.54;101582.17;1879225;76;25612;-72
2022/01/18 11:25:45;;;;;;;;;;;;;;;12.52;54.82;101582.95;1882040;76;27865;-70
2022/01/18 11:28:13;;;;;;;6.12;3.47;;;;;;;13.12;54.39;101582.95;1852528;77;26184;-72
2022/01/18 11:30:47;;;;;;;7.97;3.53;;;;;;;13.75;53.88;101577.61;1883962;75;25648;-72
2022/01/18 11:33:17;;;;;;;9.40;3.60;;;;;;;13.94;51.51;101572.10;1894402;75;25598;-71
2022/01/18 11:36:04;;;;;;;6.47;3.83;;;;;;;13.71;51.01;101575.81;1894654;75;25626;-72
2022/01/18 11:38:53;;;;;;;6.50;2.85;;;;;;;13.57;50.57;101581.19;1894847;75;27359;-72
2022/01/18 11:41:28;;;;;;;;;;;;;;;13.26;50.29;101581.12;1897405;75;25642;-72
2022/01/18 11:43:57;;;;;;;7.17;3.33;;;;;;;13.11;49.81;101580.00;1844002;77;25582;-72
2022/01/18 11:46:36;;;;;;;7.60;2.98;;;;;;;12.83;50.01;101583.91;1843997;77;26317;-72
2022/01/18 11:49:27;;;;;;;6.20;3.30;;;;;;;12.93;50.22;101588.95;1810940;79;25656;-71
2022/01/18 11:52:05;;;;;;;9.18;3.35;;;;;;;12.65;49.61;101584.69;1810837;79;27301;-71
2022/01/18 11:57:27;;;;;;;5.10;2.45;;;;;;;12.58;49.71;101586.95;1843942;77;25660;-71
2022/01/18 12:00:08;;;;;;;4.50;2.40;;;;;;;12.47;49.75;101585.72;1810875;78;25636;-73
2022/01/18 12:02:45;;;;;;;4.92;2.75;;;;;;;12.33;49.05;101580.19;1808587;79;25689;-72
2022/01/18 12:05:19;;;;;;;7.28;2.40;;;;;;;12.17;49.23;101581.45;1842327;77;28012;-71
2022/01/18 12:07:53;;;;;;;5.20;2.72;;;;;;;12.05;49.41;101585.11;1807546;79;25610;-72
2022/01/18 12:10:43;;;;;;;5.25;2.70;;;;;;;12.01;49.30;101584.08;1809752;79;25678;-70
2022/01/18 12:13:13;;;;;;;7.00;2.75;;;;;;;11.82;48.93;101590.20;1808156;79;26150;-70
2022/01/18 12:15:47;;;;;;;6.08;2.67;;;;;;;11.50;48.82;101591.55;1844086;77;25592;-72
2022/01/18 12:18:20;;;;;;;7.42;3.08;;;;;;;11.33;49.68;101610.10;1810969;78;27305;-71
2022/01/18 12:20:49;;;;;;;6.90;3.42;;;;;;;11.02;48.81;101604.89;1810738;79;25672;-71
2022/01/18 12:23:26;;;;;;;6.97;3.37;;;;;;;10.49;48.50;101616.22;1843876;77;25680;-71
2022/01/18 12:26:29;;;;;;;7.37;3.30;;;;;;;9.91;48.92;101608.48;1843985;77;25670;-71
2022/01/18 12:34:37;;;;;;;9.58;3.45;;;;;;;8.13;50.82;101621.20;1808450;79;25789;-70
2022/01/18 12:37:17;;;;;;;8.80;3.45;;;;;;;7.84;52.41;101623.69;1815563;79;25876;-71
2022/01/18 12:39:57;;;;;;;5.30;2.92;;;;;;;7.63;52.38;101622.72;1751042;80;26331;-70
2022/01/18 12:45:14;;;;;;;6.87;2.60;;;;;;;7.26;53.69;101639.59;1809662;79;27495;-70
2022/01/18 12:47:55;;;;;;;11.38;4.22;;;;;;;7.23;54.34;101643.33;1809731;79;25628;-71
2022/01/18 12:50:32;;;;;;;25.52;12.05;;;;;;;7.21;54.51;101640.89;1809618;77;25661;-72
2022/01/18 12:53:08;;;;;;;10.08;4.42;;;;;;;7.46;56.15;101640.34;1809794;79;25551;-70
2022/01/18 12:55:54;;;;;;;9.03;4.08;;;;;;;7.83;56.29;101638.75;1809986;79;25947;-71
2022/01/18 12:58:31;;;;;;;12.07;4.40;;;;;;;7.97;55.79;101640.50;1784759;79;27458;-70
2022/01/18 13:01:15;;;;;;;11.50;4.17;;;;;;;7.91;54.60;101645.56;1844177;77;25448;-70
2022/01/18 13:03:46;;;;;;;8.05;4.15;;;;;;;7.62;54.58;101647.20;1810903;78;25594;-71
2022/01/18 13:06:22;;;;;;;11.55;4.58;;;;;;;7.40;54.44;101642.69;1810841;78;25684;-70
2022/01/18 13:09:01;;;;;;;7.65;4.15;;;;;;;7.13;54.67;101644.56;1844208;77;25439;-70